Aérodrome :







RETROUVEZ-NOUS SUR...

 
LOGIN :

S'inscrire | Disclaimer

   EN    FR    IT 

 









Légende :    VFR   VFR Marginal   IFR   IFR Intensif   IFR Très Intensif
Visi : 
Plafond : 
>= 8 km
>= 3000ft
5 à 8 km
1000 à 3000 ft
1500m à 5 km
500 à 1000 ft
800 à 1500m
200 à 500 ft
< 800m
< 200 ft
Symboles :   Orages  Brouillard  Fortes neiges  Fortes précipitations  Vent > 20 kt






- Altitude de l'aérodrome : 11 ft


KGHG - Marshfield Municipal George Harlow Field

DERNIER METAR :
  • 150215Z AUTO 20012G26KT 150V230 10SM BKN012 OVC016 14/13 A2915 RMK AO2

METARs EXPIRÉS :
  • 150155Z AUTO 21013G22KT 10SM OVC012 15/14 A2915 RMK AO2
  • 150135Z AUTO 22011G27KT 190V250 9SM BKN010 OVC014 16/15 A2915 RMK AO2
  • 150115Z AUTO 20018G24KT 8SM BKN009 OVC014 16/16 A2915 RMK AO2
  • 150055Z AUTO 20013G23KT 8SM OVC009 16/16 A2915 RMK AO2
  • 150035Z AUTO 20010G26KT 150V220 9SM OVC007 16/16 A2916 RMK AO2
  • 150015Z AUTO 21013G21KT 7SM OVC007 16/16 A2917 RMK AO2
  • 142355Z AUTO 20014G23KT 160V230 9SM OVC007 16/16 A2918 RMK AO2
  • 142335Z AUTO 21014G22KT 8SM OVC006 16/16 A2919 RMK AO2

TAF N/A



MET'MAP, la Météo Aéronautique d'un coup d'oeil ! - Copyright ORBIFLY Décembre 2007 - Disclaimer

ORBIFLY MET'MAP TEAM :

Programmation & Développement : Alexandra Zaïnal
Sur une idée originale de : Baudouin d'Aumeries
Assistance à la programmation : Marc-Olivier Méhu
Soutien technique & logistique : Manuel Goepfert

Contact : metmap@orbifly.com




SOURCES & CREDITS :

   NOAA